createdAt,value
2022-12-03T00:02:14.737Z,19.75
2022-12-03T00:04:41.339Z,19.42
2022-12-03T00:07:07.803Z,19.63
2022-12-03T00:09:34.255Z,20.60
2022-12-03T00:12:00.647Z,19.45
2022-12-03T00:14:27.095Z,20.77
2022-12-03T00:16:53.524Z,20.42
2022-12-03T00:19:19.934Z,20.88
2022-12-03T00:21:46.360Z,20.75
2022-12-03T00:24:12.807Z,19.60
2022-12-03T00:26:39.284Z,20.48
2022-12-03T00:29:05.749Z,19.90
2022-12-03T00:31:32.243Z,21.33
2022-12-03T00:33:58.867Z,21.25
2022-12-03T00:36:25.272Z,21.23
2022-12-03T00:38:51.719Z,19.60
2022-12-03T00:41:18.171Z,20.23
2022-12-03T00:43:44.561Z,21.27
2022-12-03T00:46:10.968Z,19.60
2022-12-03T00:48:37.451Z,20.92
2022-12-03T00:51:03.959Z,21.65
2022-12-03T00:53:30.435Z,21.20
2022-12-03T00:55:59.692Z,20.75
2022-12-03T00:58:26.083Z,21.10
2022-12-03T01:00:52.558Z,20.75
2022-12-03T01:03:19.040Z,21.10
2022-12-03T01:05:45.504Z,21.13
2022-12-03T01:08:12.134Z,20.08
2022-12-03T01:10:38.741Z,21.55
2022-12-03T01:13:05.284Z,21.05
2022-12-03T01:15:31.736Z,20.15
2022-12-03T01:17:58.196Z,21.60
2022-12-03T01:20:24.664Z,21.80
2022-12-03T01:22:51.214Z,21.48
2022-12-03T01:25:17.968Z,19.98
2022-12-03T01:27:44.532Z,20.52
2022-12-03T01:30:12.041Z,21.25
2022-12-03T01:32:38.484Z,21.10
2022-12-03T01:35:05.268Z,20.95
2022-12-03T01:37:31.696Z,20.67
2022-12-03T01:39:58.149Z,21.77
2022-12-03T01:42:26.049Z,20.40
2022-12-03T01:44:53.592Z,20.52
2022-12-03T01:47:22.532Z,20.83
2022-12-03T01:49:50.815Z,20.30
2022-12-03T01:52:18.580Z,20.95
2022-12-03T01:54:50.103Z,20.02
2022-12-03T01:57:21.668Z,20.33
2022-12-03T01:59:48.317Z,22.88
2022-12-03T02:02:33.007Z,21.77
2022-12-03T02:05:00.141Z,20.63
2022-12-03T02:07:30.212Z,21.20
2022-12-03T02:09:58.096Z,22.05
2022-12-03T02:12:30.577Z,22.35
2022-12-03T02:14:57.266Z,22.08
2022-12-03T02:17:23.790Z,22.10
2022-12-03T02:19:50.280Z,21.80
2022-12-03T02:22:16.667Z,22.20
2022-12-03T02:24:55.143Z,23.23
2022-12-03T02:27:22.244Z,21.20
2022-12-03T02:29:48.730Z,22.00
2022-12-03T02:32:15.303Z,21.85
2022-12-03T02:34:42.712Z,23.10
2022-12-03T02:37:26.762Z,23.23
2022-12-03T02:39:54.971Z,23.02
2022-12-03T02:42:36.673Z,23.70
2022-12-03T02:45:09.088Z,22.15
2022-12-03T02:47:36.541Z,22.80
2022-12-03T02:50:03.293Z,23.55
2022-12-03T02:52:29.909Z,24.20
2022-12-03T02:54:56.502Z,25.00
2022-12-03T02:57:23.068Z,24.13
2022-12-03T02:59:49.547Z,25.15
2022-12-03T03:02:16.260Z,25.20
2022-12-03T03:04:43.129Z,24.85
2022-12-03T03:07:09.772Z,25.27
2022-12-03T03:09:36.509Z,25.23
2022-12-03T03:12:02.969Z,24.17
2022-12-03T03:14:29.494Z,25.75
2022-12-03T03:16:56.345Z,25.40
2022-12-03T03:19:24.177Z,25.20
2022-12-03T03:21:50.831Z,26.40
2022-12-03T03:24:17.353Z,25.05
2022-12-03T03:26:43.985Z,25.73
2022-12-03T03:29:10.628Z,25.30
2022-12-03T03:31:37.497Z,26.35
2022-12-03T03:34:03.979Z,26.63
2022-12-03T03:36:31.308Z,26.23
2022-12-03T03:38:57.848Z,27.77
2022-12-03T03:41:25.964Z,25.98
2022-12-03T03:43:52.559Z,26.48
2022-12-03T03:46:19.703Z,26.42
2022-12-03T03:48:48.391Z,25.77
2022-12-03T03:51:15.396Z,25.13
2022-12-03T03:53:44.291Z,26.15
2022-12-03T03:56:11.421Z,27.42
2022-12-03T03:58:38.374Z,27.50
2022-12-03T04:01:04.875Z,26.60
2022-12-03T04:03:31.362Z,27.27
2022-12-03T04:05:57.994Z,26.65
2022-12-03T04:08:24.418Z,26.67
2022-12-03T04:11:09.652Z,26.73
2022-12-03T04:13:36.121Z,27.33
2022-12-03T04:16:02.578Z,27.17
2022-12-03T04:18:44.370Z,26.52
2022-12-03T04:21:30.974Z,25.83
2022-12-03T04:23:57.381Z,26.02
2022-12-03T04:26:42.598Z,26.45
2022-12-03T04:29:09.263Z,26.02
2022-12-03T04:31:54.638Z,27.25
2022-12-03T04:34:39.756Z,25.67
2022-12-03T04:37:06.527Z,28.70
2022-12-03T04:39:33.391Z,27.95
2022-12-03T04:41:59.831Z,25.95
2022-12-03T04:44:38.526Z,26.85
2022-12-03T04:47:12.338Z,26.35
2022-12-03T04:49:43.094Z,27.70
2022-12-03T04:52:10.350Z,28.45
2022-12-03T04:54:37.329Z,29.42
2022-12-03T04:57:04.237Z,27.17
2022-12-03T04:59:31.107Z,26.67
2022-12-03T05:01:57.606Z,27.70
2022-12-03T05:04:24.358Z,28.60
2022-12-03T05:06:50.817Z,28.10
2022-12-03T05:09:17.288Z,29.00
2022-12-03T05:11:44.088Z,30.77
2022-12-03T05:14:10.860Z,29.30
2022-12-03T05:16:37.584Z,29.50
2022-12-03T05:19:04.818Z,29.05
2022-12-03T05:21:32.640Z,28.52
2022-12-03T05:23:59.139Z,29.52
2022-12-03T05:26:25.656Z,29.60
2022-12-03T05:28:52.105Z,28.95
2022-12-03T05:31:18.667Z,28.73
2022-12-03T05:33:45.281Z,27.70
2022-12-03T05:36:11.980Z,28.73
2022-12-03T05:38:38.684Z,28.73
2022-12-03T05:41:25.136Z,28.92
2022-12-03T05:43:51.635Z,27.65
2022-12-03T05:46:18.124Z,28.73
2022-12-03T05:48:44.778Z,31.95
2022-12-03T05:51:11.318Z,28.92
2022-12-03T05:53:37.757Z,30.33
2022-12-03T05:56:04.333Z,30.10
2022-12-03T05:58:30.790Z,31.73
2022-12-03T06:00:57.212Z,29.38
2022-12-03T06:03:23.860Z,30.40
2022-12-03T06:05:50.471Z,29.90
2022-12-03T06:08:16.978Z,30.52
2022-12-03T06:10:43.528Z,29.17
2022-12-03T06:13:09.934Z,30.52
2022-12-03T06:15:40.401Z,29.13
2022-12-03T06:18:09.814Z,30.80
2022-12-03T06:20:36.269Z,29.65
2022-12-03T06:23:02.662Z,30.02
2022-12-03T06:25:29.083Z,31.02
2022-12-03T06:27:55.493Z,30.95
2022-12-03T06:30:21.947Z,31.00
2022-12-03T06:32:48.389Z,30.02
2022-12-03T06:35:14.793Z,31.42
2022-12-03T06:37:41.229Z,30.20
2022-12-03T06:40:07.967Z,33.00
2022-12-03T06:42:34.319Z,31.33
2022-12-03T06:45:00.786Z,32.03
2022-12-03T06:47:33.394Z,30.92
2022-12-03T06:49:59.852Z,29.60
2022-12-03T06:52:26.298Z,31.35
2022-12-03T06:54:52.877Z,31.98
2022-12-03T06:57:19.661Z,31.33
2022-12-03T06:59:46.076Z,31.33
2022-12-03T07:02:12.907Z,30.73
2022-12-03T07:04:43.388Z,30.95
2022-12-03T07:07:12.708Z,32.40
2022-12-03T07:09:39.217Z,32.40
2022-12-03T07:12:05.838Z,32.20
2022-12-03T07:14:32.321Z,31.40
2022-12-03T07:16:58.735Z,30.45
2022-12-03T07:19:29.196Z,31.63
2022-12-03T07:21:58.858Z,31.45
2022-12-03T07:24:25.282Z,32.78
2022-12-03T07:26:51.759Z,29.50
2022-12-03T07:29:18.306Z,32.30
2022-12-03T07:31:44.818Z,31.63
2022-12-03T07:34:11.411Z,32.65
2022-12-03T07:36:37.911Z,30.90
2022-12-03T07:39:04.325Z,31.98
2022-12-03T07:41:30.836Z,31.73
2022-12-03T07:43:57.251Z,32.72
2022-12-03T07:46:23.802Z,30.92
2022-12-03T07:48:50.330Z,31.80
2022-12-03T07:51:16.771Z,30.25
2022-12-03T07:53:43.177Z,30.05
2022-12-03T07:56:09.748Z,29.27
2022-12-03T07:58:36.279Z,30.92
2022-12-03T08:01:02.944Z,30.00
2022-12-03T08:03:29.680Z,30.60
2022-12-03T08:05:58.393Z,30.15
2022-12-03T08:08:24.917Z,29.23
2022-12-03T08:10:51.568Z,30.00
2022-12-03T08:13:18.815Z,30.50
2022-12-03T08:15:45.920Z,31.90
2022-12-03T08:18:14.930Z,29.55
2022-12-03T08:20:42.348Z,29.48
2022-12-03T08:23:24.790Z,29.67
2022-12-03T08:25:51.987Z,29.80
2022-12-03T08:28:23.038Z,31.08
2022-12-03T08:30:59.010Z,30.42
2022-12-03T08:33:25.383Z,28.00
2022-12-03T08:35:51.927Z,30.48
2022-12-03T08:38:22.908Z,30.85
2022-12-03T08:40:51.259Z,31.15
2022-12-03T08:43:27.680Z,28.77
2022-12-03T08:45:55.468Z,28.27
2022-12-03T08:48:29.713Z,29.17
2022-12-03T08:51:01.628Z,30.50
2022-12-03T08:53:28.024Z,29.17
2022-12-03T08:55:59.270Z,28.30
2022-12-03T08:58:30.926Z,29.55
2022-12-03T09:00:58.970Z,28.88
2022-12-03T09:03:29.864Z,28.67
2022-12-03T09:05:56.398Z,29.08
2022-12-03T09:08:22.820Z,26.30
2022-12-03T09:10:49.320Z,29.60
2022-12-03T09:13:15.843Z,28.45
2022-12-03T09:15:42.281Z,26.45
2022-12-03T09:18:08.663Z,27.52
2022-12-03T09:20:35.121Z,29.05
2022-12-03T09:23:03.772Z,28.60
2022-12-03T09:25:30.200Z,27.58
2022-12-03T09:27:56.607Z,27.85
2022-12-03T09:30:23.163Z,28.48
2022-12-03T09:32:49.698Z,27.90
2022-12-03T09:35:16.269Z,27.88
2022-12-03T09:37:42.674Z,30.10
2022-12-03T09:40:09.765Z,29.23
2022-12-03T09:42:36.475Z,26.98
2022-12-03T09:45:05.369Z,28.13
2022-12-03T09:47:31.898Z,26.90
2022-12-03T09:49:58.897Z,27.90
2022-12-03T09:52:26.734Z,27.92
2022-12-03T09:54:54.229Z,27.15
2022-12-03T09:57:21.012Z,28.20
2022-12-03T09:59:47.555Z,26.17
2022-12-03T10:02:20.324Z,26.92
2022-12-03T10:04:47.165Z,29.17
2022-12-03T10:07:13.739Z,27.33
2022-12-03T10:09:40.349Z,29.08
2022-12-03T10:12:10.522Z,27.17
2022-12-03T10:14:37.234Z,27.75
2022-12-03T10:17:04.123Z,27.55
2022-12-03T10:19:32.103Z,27.45
2022-12-03T10:21:58.728Z,26.95
2022-12-03T10:24:31.104Z,25.52
2022-12-03T10:26:58.914Z,28.10
2022-12-03T10:29:34.314Z,30.80
2022-12-03T10:32:01.183Z,28.50
2022-12-03T10:34:35.325Z,28.33
2022-12-03T10:37:10.851Z,29.33
2022-12-03T10:39:56.681Z,27.63
2022-12-03T10:42:24.445Z,26.83
2022-12-03T10:45:06.261Z,27.77
2022-12-03T10:47:32.731Z,26.75
2022-12-03T10:50:04.283Z,28.08
2022-12-03T10:52:30.762Z,26.90
2022-12-03T10:54:57.274Z,29.90
2022-12-03T10:57:24.010Z,28.73
2022-12-03T10:59:50.632Z,28.98
2022-12-03T11:02:21.354Z,27.23
2022-12-03T11:04:48.109Z,28.00
2022-12-03T11:07:15.814Z,27.60
2022-12-03T11:09:49.487Z,29.88
2022-12-03T11:14:52.106Z,27.30
2022-12-03T11:17:37.583Z,26.65
2022-12-03T11:20:04.227Z,26.42
2022-12-03T11:22:41.875Z,27.70
2022-12-03T11:25:31.437Z,26.77
2022-12-03T11:28:13.172Z,26.15
2022-12-03T11:30:45.648Z,27.63
2022-12-03T11:33:29.307Z,28.10
2022-12-03T11:36:01.825Z,27.88
2022-12-03T11:38:41.037Z,28.70
2022-12-03T11:41:10.521Z,28.10
2022-12-03T11:43:52.227Z,28.25
2022-12-03T11:46:21.748Z,27.05
2022-12-03T11:48:49.387Z,26.77
2022-12-03T11:51:16.705Z,29.20
2022-12-03T11:53:44.235Z,27.55
2022-12-03T11:56:15.759Z,27.60
2022-12-03T11:58:43.079Z,28.20
2022-12-03T12:01:09.775Z,30.25
2022-12-03T12:03:41.665Z,29.20
2022-12-03T12:06:09.465Z,29.42
2022-12-03T12:08:37.306Z,29.05
2022-12-03T12:11:04.335Z,27.23
2022-12-03T12:13:30.707Z,28.27
2022-12-03T12:16:01.160Z,27.38
2022-12-03T12:18:39.499Z,26.20
2022-12-03T12:21:24.777Z,25.85
2022-12-03T12:23:51.195Z,25.67
2022-12-03T12:26:17.603Z,27.23
2022-12-03T12:28:44.230Z,25.73
2022-12-03T12:31:11.305Z,24.80
2022-12-03T12:33:37.836Z,25.45
2022-12-03T12:36:10.449Z,23.98
2022-12-03T12:38:36.890Z,24.13
2022-12-03T12:41:07.081Z,24.55
2022-12-03T12:43:36.101Z,25.23
2022-12-03T12:46:45.415Z,25.13
2022-12-03T12:48:59.828Z,26.08
2022-12-03T12:51:26.535Z,25.45
2022-12-03T12:53:53.803Z,26.40
2022-12-03T12:56:23.377Z,25.88
2022-12-03T12:58:49.891Z,25.95
2022-12-03T13:01:26.160Z,26.45
2022-12-03T13:03:52.945Z,25.55
2022-12-03T13:06:23.711Z,26.90
2022-12-03T13:08:50.392Z,26.80
2022-12-03T13:11:26.181Z,26.75
2022-12-03T13:13:52.601Z,29.77
2022-12-03T13:16:22.434Z,26.40
2022-12-03T13:18:53.071Z,28.45
2022-12-03T13:21:22.052Z,25.08
2022-12-03T13:23:49.493Z,25.98
2022-12-03T13:26:36.489Z,25.88
2022-12-03T13:29:13.823Z,27.23
2022-12-03T13:31:43.718Z,26.83
2022-12-03T13:34:29.879Z,28.13
2022-12-03T13:36:58.525Z,27.63
2022-12-03T13:39:32.691Z,28.25
2022-12-03T13:42:42.237Z,25.88
2022-12-03T13:45:08.926Z,27.70
2022-12-03T13:47:35.361Z,26.73
2022-12-03T13:50:04.780Z,28.80
2022-12-03T13:52:32.812Z,27.92
2022-12-03T13:54:59.212Z,26.05
2022-12-03T13:57:25.592Z,23.83
2022-12-03T13:59:52.583Z,24.90
2022-12-03T14:02:19.458Z,24.48
2022-12-03T14:04:45.962Z,26.35
2022-12-03T14:07:12.425Z,26.35
2022-12-03T14:09:38.845Z,25.67
2022-12-03T14:12:23.887Z,27.13
2022-12-03T14:14:50.294Z,26.13
2022-12-03T14:17:16.811Z,26.83
2022-12-03T14:19:43.412Z,26.30
2022-12-03T14:22:10.107Z,27.67
2022-12-03T14:24:36.834Z,28.33
2022-12-03T14:27:03.393Z,27.08
2022-12-03T14:29:29.894Z,28.58
2022-12-03T14:31:56.306Z,27.90
2022-12-03T14:34:22.822Z,26.63
2022-12-03T14:36:49.295Z,26.77
2022-12-03T14:39:15.702Z,26.85
2022-12-03T14:42:00.835Z,28.02
2022-12-03T14:44:27.281Z,26.92
2022-12-03T14:46:57.092Z,27.30
2022-12-03T14:49:23.927Z,29.10
2022-12-03T14:51:50.391Z,28.77
2022-12-03T14:54:16.861Z,29.27
2022-12-03T14:56:43.271Z,26.52
2022-12-03T14:59:09.732Z,28.85
2022-12-03T15:01:36.229Z,30.02
2022-12-03T15:04:02.798Z,28.17
2022-12-03T15:06:31.013Z,27.80
2022-12-03T15:08:57.412Z,28.75
2022-12-03T15:11:23.879Z,30.48
2022-12-03T15:13:50.308Z,29.17
2022-12-03T15:16:16.778Z,31.13
2022-12-03T15:18:43.313Z,30.25
2022-12-03T15:21:09.730Z,30.92
2022-12-03T15:23:36.206Z,31.67
2022-12-03T15:26:02.843Z,30.73
2022-12-03T15:28:29.365Z,32.40
2022-12-03T15:30:56.009Z,31.02
2022-12-03T15:33:22.596Z,31.15
2022-12-03T15:35:49.117Z,29.95
2022-12-03T15:38:15.602Z,31.58
2022-12-03T15:40:42.014Z,31.90
2022-12-03T15:43:08.748Z,30.60
2022-12-03T15:45:35.401Z,32.28
2022-12-03T15:48:01.897Z,32.47
2022-12-03T15:50:28.625Z,32.10
2022-12-03T15:52:55.272Z,30.85
2022-12-03T15:55:21.902Z,29.88
2022-12-03T15:57:49.263Z,32.72
2022-12-03T16:00:16.490Z,31.55
2022-12-03T16:02:47.530Z,33.45
2022-12-03T16:05:17.513Z,33.10
2022-12-03T16:07:44.030Z,33.90
2022-12-03T16:10:11.053Z,34.30
2022-12-03T16:12:37.503Z,34.40
2022-12-03T16:15:04.123Z,33.35
2022-12-03T16:17:30.683Z,33.58
2022-12-03T16:19:57.267Z,34.03
2022-12-03T16:22:24.059Z,33.53
2022-12-03T16:24:50.560Z,33.38
2022-12-03T16:27:19.565Z,33.25
2022-12-03T16:29:48.142Z,33.13
2022-12-03T16:32:14.573Z,35.58
2022-12-03T16:34:41.067Z,33.85
2022-12-03T16:37:08.309Z,33.58
2022-12-03T16:39:34.873Z,32.10
2022-12-03T16:42:01.296Z,33.75
2022-12-03T16:44:32.725Z,32.38
2022-12-03T16:47:00.198Z,31.98
2022-12-03T16:49:26.620Z,31.83
2022-12-03T16:51:53.131Z,32.65
2022-12-03T16:54:19.543Z,30.90
2022-12-03T16:56:45.951Z,31.45
2022-12-03T16:59:12.471Z,30.52
2022-12-03T17:01:38.945Z,30.70
2022-12-03T17:04:05.382Z,30.95
2022-12-03T17:06:31.816Z,32.78
2022-12-03T17:08:58.226Z,32.38
2022-12-03T17:11:24.689Z,32.92
2022-12-03T17:13:51.223Z,31.75
2022-12-03T17:16:17.822Z,30.77
2022-12-03T17:18:44.381Z,31.45
2022-12-03T17:21:10.854Z,31.90
2022-12-03T17:23:37.249Z,31.05
2022-12-03T17:26:03.749Z,34.20
2022-12-03T17:28:30.351Z,32.17
2022-12-03T17:30:56.842Z,31.27
2022-12-03T17:33:23.291Z,31.77
2022-12-03T17:35:49.716Z,33.35
2022-12-03T17:38:16.498Z,32.35
2022-12-03T17:40:42.930Z,31.40
2022-12-03T17:43:09.341Z,30.80
2022-12-03T17:45:36.795Z,31.92
2022-12-03T17:48:03.721Z,33.15
2022-12-03T17:50:30.103Z,34.63
2022-12-03T17:52:56.586Z,32.17
2022-12-03T17:55:31.942Z,31.88
2022-12-03T17:58:04.042Z,31.52
2022-12-03T18:00:30.553Z,31.77
2022-12-03T18:02:57.076Z,33.00
2022-12-03T18:05:23.580Z,31.80
2022-12-03T18:07:50.630Z,32.70
2022-12-03T18:10:17.311Z,32.75
2022-12-03T18:12:43.763Z,32.38
2022-12-03T18:15:10.179Z,32.22
2022-12-03T18:17:36.578Z,30.98
2022-12-03T18:20:04.241Z,30.90
2022-12-03T18:22:30.963Z,31.65
2022-12-03T18:24:57.493Z,31.83
2022-12-03T18:27:24.030Z,30.55
2022-12-03T18:29:50.491Z,31.85
2022-12-03T18:32:28.141Z,32.53
2022-12-03T18:34:55.721Z,32.63
2022-12-03T18:37:22.511Z,33.45
2022-12-03T18:39:49.026Z,31.08
2022-12-03T18:42:16.994Z,33.33
2022-12-03T18:44:49.291Z,31.88
2022-12-03T18:47:20.574Z,33.23
2022-12-03T18:49:47.242Z,34.35
2022-12-03T18:52:15.695Z,32.92
2022-12-03T18:54:42.174Z,33.33
2022-12-03T18:57:08.711Z,33.25
2022-12-03T18:59:35.284Z,35.53
2022-12-03T19:02:01.822Z,34.20
2022-12-03T19:04:28.365Z,33.67
2022-12-03T19:06:55.102Z,33.42
2022-12-03T19:09:21.523Z,36.35
2022-12-03T19:11:47.940Z,35.13
2022-12-03T19:14:14.339Z,34.97
2022-12-03T19:16:41.851Z,34.22
2022-12-03T19:19:08.862Z,33.75
2022-12-03T19:21:35.798Z,34.45
2022-12-03T19:24:30.608Z,35.55
2022-12-03T19:26:49.647Z,34.58
2022-12-03T19:29:16.084Z,35.70
2022-12-03T19:31:42.683Z,35.72
2022-12-03T19:34:09.318Z,36.60
2022-12-03T19:36:35.813Z,35.33
2022-12-03T19:39:02.676Z,37.47
2022-12-03T19:41:30.927Z,37.20
2022-12-03T19:43:57.691Z,35.78
2022-12-03T19:46:25.169Z,37.40
2022-12-03T19:48:51.995Z,36.03
2022-12-03T19:51:35.371Z,37.83
2022-12-03T19:56:30.674Z,36.00
2022-12-03T19:58:57.661Z,34.90
2022-12-03T20:01:25.853Z,34.35
2022-12-03T20:03:54.465Z,37.97
2022-12-03T20:06:26.905Z,39.00
2022-12-03T20:09:00.945Z,38.75
2022-12-03T20:11:29.492Z,37.42
2022-12-03T20:13:59.022Z,37.45
2022-12-03T20:16:25.830Z,36.97
2022-12-03T20:19:01.771Z,37.65
2022-12-03T20:21:30.013Z,36.67
2022-12-03T20:23:56.780Z,37.80
2022-12-03T20:26:23.868Z,37.58
2022-12-03T20:28:52.880Z,38.00
2022-12-03T20:31:20.616Z,37.45
2022-12-03T20:33:48.728Z,38.13
2022-12-03T20:36:16.561Z,37.50
2022-12-03T20:38:43.504Z,37.72
2022-12-03T20:41:11.385Z,38.03
2022-12-03T20:43:38.259Z,37.75
2022-12-03T20:46:09.024Z,36.35
2022-12-03T20:48:38.292Z,38.05
2022-12-03T20:51:06.135Z,37.08
2022-12-03T20:53:33.482Z,37.75
2022-12-03T20:56:01.117Z,37.20
2022-12-03T20:58:28.379Z,36.78
2022-12-03T21:00:55.375Z,35.13
2022-12-03T21:03:25.344Z,36.63
2022-12-03T21:05:58.472Z,38.10
2022-12-03T21:08:40.502Z,38.10
2022-12-03T21:11:12.768Z,34.95
2022-12-03T21:13:43.953Z,36.90
2022-12-03T21:16:14.344Z,37.50
2022-12-03T21:18:41.329Z,37.63
2022-12-03T21:21:08.886Z,38.03
2022-12-03T21:23:35.559Z,37.55
2022-12-03T21:26:03.124Z,37.20
2022-12-03T21:28:29.870Z,37.33
2022-12-03T21:30:59.549Z,37.63
2022-12-03T21:33:26.197Z,38.10
2022-12-03T21:35:52.794Z,36.53
2022-12-03T21:38:19.176Z,36.97
2022-12-03T21:40:45.662Z,37.40
2022-12-03T21:43:12.107Z,37.97
2022-12-03T21:45:42.005Z,37.25
2022-12-03T21:48:08.950Z,38.85
2022-12-03T21:50:35.415Z,39.45
2022-12-03T21:53:02.074Z,38.33
2022-12-03T21:55:28.724Z,37.08
2022-12-03T21:57:55.134Z,38.55
2022-12-03T22:00:21.875Z,37.45
2022-12-03T22:02:48.442Z,38.58
2022-12-03T22:05:15.638Z,37.55
2022-12-03T22:07:42.208Z,37.50
2022-12-03T22:10:09.566Z,38.88
2022-12-03T22:12:35.996Z,37.80
2022-12-03T22:15:02.632Z,39.00
2022-12-03T22:17:30.315Z,39.53
2022-12-03T22:19:57.103Z,39.97
2022-12-03T22:22:23.692Z,38.60
2022-12-03T22:24:50.120Z,38.97
2022-12-03T22:27:16.526Z,38.72
2022-12-03T22:29:42.950Z,38.17
2022-12-03T22:32:12.534Z,38.78
2022-12-03T22:34:40.960Z,37.15
2022-12-03T22:37:07.413Z,38.75
2022-12-03T22:39:33.838Z,38.97
2022-12-03T22:42:00.338Z,38.83
2022-12-03T22:44:26.849Z,38.80
2022-12-03T22:46:53.324Z,38.45
2022-12-03T22:49:19.801Z,38.95
2022-12-03T22:51:46.761Z,39.80
2022-12-03T22:54:13.229Z,38.47
2022-12-03T22:56:39.842Z,37.25
2022-12-03T22:59:06.306Z,39.20
2022-12-03T23:01:37.521Z,38.95
2022-12-03T23:04:04.256Z,37.47
2022-12-03T23:06:31.428Z,40.70
2022-12-03T23:08:58.575Z,39.17
2022-12-03T23:11:25.541Z,40.35
2022-12-03T23:13:52.111Z,40.58
2022-12-03T23:16:20.506Z,38.40
2022-12-03T23:18:47.052Z,40.42
2022-12-03T23:21:27.075Z,38.75
2022-12-03T23:23:55.765Z,37.78
2022-12-03T23:26:22.302Z,41.33
2022-12-03T23:28:48.796Z,39.28
2022-12-03T23:31:26.269Z,41.25
2022-12-03T23:33:53.203Z,40.03
2022-12-03T23:36:20.367Z,40.13
2022-12-03T23:38:46.827Z,40.28
2022-12-03T23:41:17.410Z,40.15
2022-12-03T23:43:43.878Z,39.78
2022-12-03T23:46:11.885Z,40.33
2022-12-03T23:48:38.658Z,39.40
2022-12-03T23:51:09.409Z,39.80
2022-12-03T23:53:36.200Z,41.53
2022-12-03T23:56:11.441Z,40.13
2022-12-03T23:58:38.729Z,38.65
